createdAt,value
2019-01-03T00:02:39.797Z,8.53
2019-01-03T00:05:11.894Z,10.20
2019-01-03T00:07:57.255Z,8.43
2019-01-03T00:10:28.859Z,7.80
2019-01-03T00:12:57.892Z,6.73
2019-01-03T00:15:38.983Z,8.97
2019-01-03T00:18:08.022Z,7.23
2019-01-03T00:20:37.082Z,7.70
2019-01-03T00:23:22.511Z,6.43
2019-01-03T00:25:51.578Z,6.30
2019-01-03T00:28:38.691Z,7.57
2019-01-03T00:31:24.235Z,6.37
2019-01-03T00:34:09.695Z,6.90
2019-01-03T00:36:38.757Z,6.37
2019-01-03T00:39:17.134Z,6.50
2019-01-03T00:41:55.379Z,5.67
2019-01-03T00:44:33.164Z,6.67
2019-01-03T00:47:05.231Z,6.70
2019-01-03T00:49:34.262Z,6.03
2019-01-03T00:52:06.260Z,5.03
2019-01-03T00:54:50.332Z,5.33
2019-01-03T00:57:36.154Z,6.17
2019-01-03T01:00:15.054Z,6.27
2019-01-03T01:03:00.598Z,6.03
2019-01-03T01:05:45.980Z,6.67
2019-01-03T01:08:15.013Z,4.97
2019-01-03T01:10:46.973Z,5.27
2019-01-03T01:13:28.186Z,5.90
2019-01-03T01:15:57.211Z,5.73
2019-01-03T01:18:32.480Z,6.07
2019-01-03T01:21:01.587Z,4.73
2019-01-03T01:23:36.155Z,5.80
2019-01-03T01:26:07.895Z,5.80
2019-01-03T01:28:49.170Z,4.40
2019-01-03T01:31:34.593Z,5.03
2019-01-03T01:34:12.975Z,4.43
2019-01-03T01:36:58.798Z,5.07
2019-01-03T01:39:33.404Z,4.20
2019-01-03T01:42:08.048Z,4.93
2019-01-03T01:44:53.599Z,4.77
2019-01-03T01:47:38.994Z,5.57
2019-01-03T01:50:24.500Z,4.10
2019-01-03T01:53:10.067Z,4.07
2019-01-03T01:55:54.260Z,4.67
2019-01-03T01:58:23.318Z,5.30
2019-01-03T02:01:04.691Z,4.07
2019-01-03T02:03:39.487Z,3.60
2019-01-03T02:06:20.421Z,3.67
2019-01-03T02:09:05.816Z,4.40
2019-01-03T02:11:44.220Z,4.10
2019-01-03T02:14:16.053Z,3.43
2019-01-03T02:16:51.103Z,3.60
2019-01-03T02:19:32.255Z,3.80
2019-01-03T02:22:03.981Z,4.17
2019-01-03T02:24:35.573Z,4.90
2019-01-03T02:27:07.578Z,3.20
2019-01-03T02:29:53.172Z,3.67
2019-01-03T02:32:34.186Z,3.40
2019-01-03T02:35:19.675Z,3.57
2019-01-03T02:37:54.637Z,3.50
2019-01-03T02:40:40.006Z,3.80
2019-01-03T02:43:25.359Z,3.30
2019-01-03T02:46:09.468Z,2.57
2019-01-03T02:48:50.615Z,3.73
2019-01-03T02:51:36.080Z,3.50
2019-01-03T02:54:05.140Z,3.67
2019-01-03T02:56:39.880Z,3.73
2019-01-03T02:59:08.938Z,3.93
2019-01-03T03:01:40.662Z,3.47
2019-01-03T03:04:15.731Z,3.77
2019-01-03T03:06:53.796Z,2.87
2019-01-03T03:09:31.544Z,3.00
2019-01-03T03:12:18.827Z,3.40
2019-01-03T03:14:53.822Z,3.37
2019-01-03T03:17:28.936Z,3.10
2019-01-03T03:19:57.997Z,2.83
2019-01-03T03:22:27.027Z,3.37
2019-01-03T03:25:12.446Z,3.30
2019-01-03T03:27:50.107Z,3.50
2019-01-03T03:30:35.653Z,3.03
2019-01-03T03:33:21.231Z,3.23
2019-01-03T03:36:02.351Z,2.33
2019-01-03T03:38:31.413Z,3.20
2019-01-03T03:41:16.813Z,3.70
2019-01-03T03:43:45.872Z,3.00
2019-01-03T03:46:17.453Z,2.63
2019-01-03T03:48:49.472Z,3.20
2019-01-03T03:51:35.392Z,3.30
2019-01-03T03:54:22.823Z,2.90
2019-01-03T03:57:08.284Z,2.50
2019-01-03T03:59:53.710Z,2.43
2019-01-03T04:02:31.916Z,3.13
2019-01-03T04:05:01.075Z,2.37
2019-01-03T04:07:33.070Z,3.13
2019-01-03T04:10:17.316Z,2.50
2019-01-03T04:13:04.454Z,2.57
2019-01-03T04:15:48.581Z,2.03
2019-01-03T04:18:23.393Z,2.43
2019-01-03T04:20:55.135Z,2.93
2019-01-03T04:23:39.250Z,3.20
2019-01-03T04:26:24.620Z,2.30
2019-01-03T04:28:56.577Z,2.90
2019-01-03T04:31:25.642Z,2.30
2019-01-03T04:33:57.592Z,3.00
2019-01-03T04:36:32.879Z,3.00
2019-01-03T04:39:10.946Z,2.50
2019-01-03T04:41:40.006Z,2.33
2019-01-03T04:44:15.027Z,2.43
2019-01-03T04:46:53.399Z,3.00
2019-01-03T04:49:31.477Z,2.47
2019-01-03T04:52:03.357Z,2.77
2019-01-03T04:54:44.299Z,2.70
2019-01-03T04:57:30.018Z,2.80
2019-01-03T05:00:11.375Z,2.93
2019-01-03T05:02:40.413Z,4.80
2019-01-03T05:05:21.339Z,3.27
2019-01-03T05:08:02.539Z,2.20
2019-01-03T05:10:31.597Z,3.03
2019-01-03T05:13:15.730Z,2.50
2019-01-03T05:16:01.257Z,2.47
2019-01-03T05:18:36.317Z,2.65
2019-01-03T05:21:21.706Z,2.70
2019-01-03T05:24:06.876Z,2.53
2019-01-03T05:26:52.677Z,2.70
2019-01-03T05:29:21.707Z,2.40
2019-01-03T05:32:09.271Z,2.40
2019-01-03T05:34:56.520Z,2.50
2019-01-03T05:37:42.110Z,2.83
2019-01-03T05:40:27.576Z,2.60
2019-01-03T05:43:12.873Z,3.37
2019-01-03T05:45:41.953Z,2.77
2019-01-03T05:48:11.019Z,4.00
2019-01-03T05:50:43.047Z,3.30
2019-01-03T05:53:18.137Z,3.83
2019-01-03T05:56:03.995Z,4.70
2019-01-03T05:58:44.946Z,4.53
2019-01-03T06:01:16.885Z,3.87
2019-01-03T06:04:02.318Z,3.80
2019-01-03T06:06:43.198Z,4.00
2019-01-03T06:09:12.223Z,4.40
2019-01-03T06:11:53.198Z,4.10
2019-01-03T06:14:34.437Z,3.47
2019-01-03T06:17:06.478Z,4.77
2019-01-03T06:19:35.513Z,3.97
2019-01-03T06:22:07.562Z,3.50
2019-01-03T06:24:52.944Z,3.87
2019-01-03T06:27:21.998Z,3.97
2019-01-03T06:29:54.007Z,4.00
2019-01-03T06:32:31.940Z,4.17
2019-01-03T06:35:17.247Z,2.97
2019-01-03T06:37:51.890Z,5.03
2019-01-03T06:40:20.932Z,4.10
2019-01-03T06:43:06.402Z,3.37
2019-01-03T06:45:41.483Z,3.20
2019-01-03T06:48:20.244Z,2.73
2019-01-03T06:51:04.715Z,3.67
2019-01-03T06:53:42.917Z,3.20
2019-01-03T06:56:11.950Z,3.10
2019-01-03T06:58:57.610Z,3.13
2019-01-03T07:01:35.605Z,2.93
2019-01-03T07:04:10.603Z,3.23
2019-01-03T07:06:56.018Z,2.80
2019-01-03T07:09:25.076Z,2.40
2019-01-03T07:12:10.521Z,2.63
2019-01-03T07:14:57.846Z,3.23
2019-01-03T07:17:26.952Z,3.63
2019-01-03T07:19:58.870Z,2.90
2019-01-03T07:22:27.904Z,2.50
2019-01-03T07:24:59.707Z,3.40
2019-01-03T07:27:45.327Z,2.90
2019-01-03T07:30:20.193Z,3.30
2019-01-03T07:32:54.954Z,2.30
2019-01-03T07:35:40.372Z,2.70
2019-01-03T07:38:09.427Z,2.80
2019-01-03T07:40:47.472Z,2.20
2019-01-03T07:43:33.089Z,3.00
2019-01-03T07:46:02.132Z,2.70
2019-01-03T07:48:40.279Z,2.77
2019-01-03T07:51:25.972Z,2.43
2019-01-03T07:54:11.491Z,2.33
2019-01-03T07:56:40.527Z,2.17
2019-01-03T07:59:15.497Z,2.73
2019-01-03T08:01:47.245Z,2.43
2019-01-03T08:04:16.306Z,2.90
2019-01-03T08:07:01.823Z,2.40
2019-01-03T08:09:33.437Z,2.50
2019-01-03T08:12:02.478Z,2.87
2019-01-03T08:14:43.794Z,2.73
2019-01-03T08:17:18.683Z,2.07
2019-01-03T08:19:50.655Z,2.93
2019-01-03T08:22:22.169Z,2.40
2019-01-03T08:25:07.911Z,2.60
2019-01-03T08:27:55.026Z,2.20
2019-01-03T08:30:24.086Z,3.03
2019-01-03T08:33:05.064Z,2.70
2019-01-03T08:35:49.221Z,2.33
2019-01-03T08:38:18.247Z,2.43
2019-01-03T08:40:47.308Z,2.63
2019-01-03T08:43:19.070Z,2.23
2019-01-03T08:45:48.126Z,2.73
2019-01-03T08:48:35.213Z,3.10
2019-01-03T08:51:21.026Z,2.40
2019-01-03T08:53:52.809Z,2.07
2019-01-03T08:56:24.831Z,2.87
2019-01-03T08:58:56.597Z,2.13
2019-01-03T09:01:40.968Z,2.37
2019-01-03T09:04:12.699Z,2.20
2019-01-03T09:06:57.054Z,3.10
2019-01-03T09:09:31.911Z,2.20
2019-01-03T09:12:00.970Z,3.17
2019-01-03T09:14:45.050Z,2.30
2019-01-03T09:17:17.016Z,3.00
2019-01-03T09:19:54.900Z,1.97
2019-01-03T09:22:29.816Z,3.00
2019-01-03T09:25:16.870Z,2.00
2019-01-03T09:28:02.555Z,2.43
2019-01-03T09:30:40.371Z,2.50
2019-01-03T09:33:09.482Z,2.27
2019-01-03T09:35:43.974Z,2.40
2019-01-03T09:38:13.009Z,2.77
2019-01-03T09:40:48.153Z,2.50
2019-01-03T09:43:17.191Z,2.30
2019-01-03T09:45:44.630Z,2.10
2019-01-03T09:48:12.027Z,2.60
2019-01-03T09:50:39.499Z,2.30
2019-01-03T09:53:06.918Z,2.43
2019-01-03T09:55:34.299Z,2.10
2019-01-03T09:58:01.788Z,2.40
2019-01-03T10:00:29.176Z,2.30
2019-01-03T10:02:56.677Z,2.50
2019-01-03T10:05:24.068Z,1.93
2019-01-03T10:07:51.486Z,3.50
2019-01-03T10:10:18.944Z,2.20
2019-01-03T10:12:46.372Z,3.30
2019-01-03T10:15:13.752Z,2.22
2019-01-03T10:17:41.243Z,2.23
2019-01-03T10:20:08.699Z,2.87
2019-01-03T10:22:36.161Z,2.97
2019-01-03T10:25:04.223Z,2.10
2019-01-03T10:27:31.654Z,2.60
2019-01-03T10:29:59.038Z,2.73
2019-01-03T10:32:26.526Z,1.83
2019-01-03T10:34:53.919Z,1.90
2019-01-03T10:37:21.340Z,2.00
2019-01-03T10:39:48.741Z,2.20
2019-01-03T10:42:17.442Z,2.13
2019-01-03T10:44:44.929Z,2.40
2019-01-03T10:47:12.347Z,2.43
2019-01-03T10:49:39.765Z,2.43
2019-01-03T10:52:07.186Z,2.50
2019-01-03T10:54:34.574Z,1.83
2019-01-03T10:57:02.002Z,1.97
2019-01-03T10:59:29.422Z,2.30
2019-01-03T11:01:56.848Z,2.70
2019-01-03T11:04:24.234Z,2.67
2019-01-03T11:06:51.621Z,2.83
2019-01-03T11:09:19.051Z,2.37
2019-01-03T11:11:46.438Z,2.00
2019-01-03T11:14:13.864Z,2.30
2019-01-03T11:16:41.248Z,2.57
2019-01-03T11:19:08.754Z,2.10
2019-01-03T11:21:36.159Z,2.60
2019-01-03T11:24:03.577Z,2.10
2019-01-03T11:26:31.044Z,2.70
2019-01-03T11:28:58.458Z,3.07
2019-01-03T11:31:25.854Z,2.37
2019-01-03T11:33:53.296Z,2.17
2019-01-03T11:36:20.799Z,2.63
2019-01-03T11:38:48.262Z,2.33
2019-01-03T11:41:15.655Z,2.77
2019-01-03T11:43:43.076Z,2.67
2019-01-03T11:46:10.465Z,2.77
2019-01-03T11:48:37.883Z,2.40
2019-01-03T11:51:05.277Z,2.00
2019-01-03T11:53:32.796Z,2.13
2019-01-03T11:56:00.190Z,2.40
2019-01-03T11:58:27.606Z,2.43
2019-01-03T12:00:55.038Z,2.40
2019-01-03T12:03:22.457Z,2.63
2019-01-03T12:05:49.848Z,2.10
2019-01-03T12:08:17.276Z,1.97
2019-01-03T12:10:44.655Z,2.53
2019-01-03T12:13:12.078Z,2.10
2019-01-03T12:15:39.571Z,2.80
2019-01-03T12:18:07.339Z,2.57
2019-01-03T12:20:34.759Z,2.50
2019-01-03T12:23:02.148Z,2.93
2019-01-03T12:25:29.568Z,2.33
2019-01-03T12:27:56.960Z,2.90
2019-01-03T12:30:24.379Z,2.30
2019-01-03T12:32:51.774Z,3.00
2019-01-03T12:35:19.267Z,2.73
2019-01-03T12:37:46.655Z,3.00
2019-01-03T12:40:15.060Z,2.60
2019-01-03T12:42:42.642Z,2.83
2019-01-03T12:45:10.056Z,2.43
2019-01-03T12:47:37.458Z,2.70
2019-01-03T12:50:06.421Z,2.50
2019-01-03T12:52:33.907Z,2.20
2019-01-03T12:55:02.570Z,2.73
2019-01-03T12:57:29.935Z,3.00
2019-01-03T12:59:57.351Z,2.90
2019-01-03T13:02:24.749Z,2.73
2019-01-03T13:04:52.173Z,2.93
2019-01-03T13:07:19.579Z,2.90
2019-01-03T13:09:47.011Z,2.80
2019-01-03T13:12:14.391Z,2.60
2019-01-03T13:14:41.815Z,3.27
2019-01-03T13:17:09.208Z,2.30
2019-01-03T13:19:36.623Z,3.20
2019-01-03T13:22:04.017Z,3.00
2019-01-03T13:24:31.435Z,2.47
2019-01-03T13:26:58.824Z,2.53
2019-01-03T13:29:26.244Z,3.27
2019-01-03T13:31:53.639Z,2.40
2019-01-03T13:34:21.036Z,2.17
2019-01-03T13:36:48.451Z,2.17
2019-01-03T13:39:15.887Z,3.40
2019-01-03T13:41:43.307Z,3.00
2019-01-03T13:44:10.701Z,2.77
2019-01-03T13:46:38.117Z,2.50
2019-01-03T13:49:05.516Z,3.00
2019-01-03T13:51:32.935Z,2.55
2019-01-03T13:54:00.330Z,2.73
2019-01-03T13:56:27.744Z,2.37
2019-01-03T13:58:55.239Z,2.90
2019-01-03T14:01:22.722Z,2.30
2019-01-03T14:03:50.115Z,2.80
2019-01-03T14:06:17.523Z,2.40
2019-01-03T14:08:44.916Z,3.10
2019-01-03T14:11:12.434Z,2.80
2019-01-03T14:13:39.759Z,2.47
2019-01-03T14:16:07.187Z,2.97
2019-01-03T14:18:34.580Z,2.70
2019-01-03T14:21:02.074Z,3.10
2019-01-03T14:23:29.463Z,2.50
2019-01-03T14:25:56.886Z,2.63
2019-01-03T14:28:24.276Z,2.47
2019-01-03T14:30:51.690Z,2.57
2019-01-03T14:33:19.092Z,2.77
2019-01-03T14:35:46.511Z,6.10
2019-01-03T14:38:13.901Z,2.43
2019-01-03T14:40:41.327Z,2.97
2019-01-03T14:43:08.714Z,2.27
2019-01-03T14:45:36.244Z,2.43
2019-01-03T14:48:03.767Z,2.33
2019-01-03T14:50:31.178Z,2.50
2019-01-03T14:52:58.571Z,2.43
2019-01-03T14:55:25.994Z,3.00
2019-01-03T14:57:53.377Z,2.87
2019-01-03T15:00:20.795Z,2.83
2019-01-03T15:02:48.190Z,2.93
2019-01-03T15:05:15.598Z,2.45
2019-01-03T15:07:42.994Z,2.40
2019-01-03T15:10:10.489Z,2.63
2019-01-03T15:12:37.867Z,2.80
2019-01-03T15:15:05.928Z,2.37
2019-01-03T15:17:33.343Z,2.67
2019-01-03T15:20:00.792Z,2.40
2019-01-03T15:22:28.200Z,2.60
2019-01-03T15:24:55.728Z,2.30
2019-01-03T15:27:23.219Z,3.10
2019-01-03T15:29:50.614Z,2.57
2019-01-03T15:32:18.030Z,2.30
2019-01-03T15:34:45.457Z,2.30
2019-01-03T15:37:12.978Z,2.60
2019-01-03T15:39:40.369Z,2.50
2019-01-03T15:42:07.860Z,2.47
2019-01-03T15:44:35.251Z,2.07
2019-01-03T15:47:02.778Z,2.50
2019-01-03T15:49:30.168Z,2.70
2019-01-03T15:51:57.588Z,2.30
2019-01-03T15:54:25.033Z,2.97
2019-01-03T15:56:52.451Z,3.17
2019-01-03T15:59:19.838Z,2.23
2019-01-03T16:01:47.257Z,2.40
2019-01-03T16:04:14.646Z,2.80
2019-01-03T16:06:42.071Z,2.57
2019-01-03T16:09:09.462Z,2.50
2019-01-03T16:11:36.887Z,2.67
2019-01-03T16:14:04.277Z,2.60
2019-01-03T16:16:31.695Z,2.80
2019-01-03T16:18:59.086Z,2.03
2019-01-03T16:21:26.507Z,2.90
2019-01-03T16:23:53.888Z,2.80
2019-01-03T16:26:21.374Z,2.87
2019-01-03T16:28:48.771Z,2.60
2019-01-03T16:31:16.196Z,2.40
2019-01-03T16:33:43.579Z,2.60
2019-01-03T16:36:11.098Z,2.57
2019-01-03T16:38:38.483Z,2.90
2019-01-03T16:41:05.907Z,3.40
2019-01-03T16:43:33.436Z,2.87
2019-01-03T16:46:00.863Z,2.60
2019-01-03T16:48:28.265Z,2.40
2019-01-03T16:50:55.683Z,2.60
2019-01-03T16:53:23.163Z,3.10
2019-01-03T16:55:50.598Z,3.87
2019-01-03T16:58:18.072Z,2.13
2019-01-03T17:00:45.471Z,2.97
2019-01-03T17:03:12.959Z,3.67
2019-01-03T17:05:40.350Z,3.07
2019-01-03T17:08:07.838Z,3.13
2019-01-03T17:10:35.237Z,2.97
2019-01-03T17:13:02.650Z,2.20
2019-01-03T17:15:31.715Z,3.07
2019-01-03T17:17:59.216Z,3.10
2019-01-03T17:20:26.608Z,3.37
2019-01-03T17:22:54.030Z,3.30
2019-01-03T17:25:21.419Z,2.73
2019-01-03T17:27:49.717Z,3.40
2019-01-03T17:30:17.492Z,3.37
2019-01-03T17:32:45.997Z,3.10
2019-01-03T17:35:13.724Z,2.93
2019-01-03T17:37:41.349Z,3.27
2019-01-03T17:40:10.677Z,3.42
2019-01-03T17:42:38.562Z,2.80
2019-01-03T17:45:08.189Z,3.17
2019-01-03T17:47:35.763Z,2.73
2019-01-03T17:50:03.527Z,3.30
2019-01-03T17:52:30.943Z,3.10
2019-01-03T17:54:58.411Z,3.83
2019-01-03T17:57:25.827Z,3.00
2019-01-03T17:59:53.220Z,3.70
2019-01-03T18:02:20.633Z,2.87
2019-01-03T18:04:48.033Z,4.50
2019-01-03T18:07:15.428Z,3.90
2019-01-03T18:09:42.843Z,3.07
2019-01-03T18:12:10.240Z,3.67
2019-01-03T18:14:37.665Z,4.03
2019-01-03T18:17:05.216Z,4.10
2019-01-03T18:19:32.986Z,3.53
2019-01-03T18:22:00.413Z,3.40
2019-01-03T18:24:27.829Z,3.80
2019-01-03T18:26:55.223Z,3.73
2019-01-03T18:29:22.656Z,4.17
2019-01-03T18:31:50.047Z,4.30
2019-01-03T18:34:17.536Z,4.37
2019-01-03T18:36:44.930Z,5.20
2019-01-03T18:39:12.435Z,4.80
2019-01-03T18:41:39.839Z,4.27
2019-01-03T18:44:07.432Z,5.70
2019-01-03T18:46:34.825Z,5.25
2019-01-03T18:49:02.244Z,5.33
2019-01-03T18:51:29.723Z,5.70
2019-01-03T18:53:57.217Z,7.23
2019-01-03T18:56:24.607Z,4.90
2019-01-03T18:58:52.031Z,5.90
2019-01-03T19:01:19.429Z,5.13
2019-01-03T19:03:46.843Z,4.83
2019-01-03T19:06:14.264Z,4.97
2019-01-03T19:08:41.675Z,4.20
2019-01-03T19:11:09.069Z,6.00
2019-01-03T19:13:36.518Z,4.00
2019-01-03T19:16:03.953Z,5.17
2019-01-03T19:18:31.339Z,4.23
2019-01-03T19:20:58.775Z,5.40
2019-01-03T19:23:26.256Z,4.83
2019-01-03T19:25:53.686Z,5.03
2019-01-03T19:28:21.073Z,4.73
2019-01-03T19:30:48.499Z,5.90
2019-01-03T19:33:15.887Z,5.23
2019-01-03T19:35:43.315Z,4.57
2019-01-03T19:38:10.708Z,5.03
2019-01-03T19:40:38.135Z,4.90
2019-01-03T19:43:05.524Z,5.07
2019-01-03T19:45:32.951Z,5.13
2019-01-03T19:48:00.331Z,4.80
2019-01-03T19:50:27.759Z,4.90
2019-01-03T19:52:55.219Z,3.97
2019-01-03T19:55:22.636Z,4.80
2019-01-03T19:57:50.028Z,6.40
2019-01-03T20:00:17.468Z,4.43
2019-01-03T20:02:44.999Z,6.13
2019-01-03T20:05:12.691Z,4.90
2019-01-03T20:07:40.150Z,4.27
2019-01-03T20:10:09.342Z,4.70
2019-01-03T20:12:36.811Z,4.57
2019-01-03T20:15:06.033Z,5.47
2019-01-03T20:17:33.645Z,4.80
2019-01-03T20:20:01.074Z,4.73
2019-01-03T20:22:28.454Z,4.07
2019-01-03T20:24:56.200Z,4.77
2019-01-03T20:27:23.637Z,5.50
2019-01-03T20:29:51.026Z,4.03
2019-01-03T20:32:18.444Z,6.30
2019-01-03T20:34:45.844Z,4.83
2019-01-03T20:37:13.338Z,6.33
2019-01-03T20:39:40.736Z,4.23
2019-01-03T20:42:08.219Z,4.43
2019-01-03T20:44:35.623Z,4.67
2019-01-03T20:47:03.051Z,4.70
2019-01-03T20:49:30.444Z,5.43
2019-01-03T20:51:58.778Z,4.60
2019-01-03T20:54:26.194Z,4.40
2019-01-03T20:56:53.615Z,4.67
2019-01-03T20:59:21.017Z,5.50
2019-01-03T21:01:48.446Z,4.90
2019-01-03T21:04:15.876Z,4.70
2019-01-03T21:06:43.281Z,4.17
2019-01-03T21:09:10.710Z,5.30
2019-01-03T21:11:38.206Z,4.37
2019-01-03T21:14:05.622Z,6.10
2019-01-03T21:16:33.053Z,4.60
2019-01-03T21:19:00.445Z,4.90
2019-01-03T21:21:27.863Z,5.43
2019-01-03T21:23:55.323Z,4.60
2019-01-03T21:26:22.914Z,5.60
2019-01-03T21:28:50.454Z,5.03
2019-01-03T21:31:17.876Z,5.40
2019-01-03T21:33:45.274Z,5.03
2019-01-03T21:36:12.694Z,5.03
2019-01-03T21:38:40.086Z,4.23
2019-01-03T21:41:07.516Z,4.87
2019-01-03T21:43:34.984Z,5.30
2019-01-03T21:46:02.463Z,6.23
2019-01-03T21:48:29.890Z,5.33
2019-01-03T21:50:57.360Z,5.37
2019-01-03T21:53:24.850Z,5.40
2019-01-03T21:55:52.252Z,5.97
2019-01-03T21:58:19.671Z,5.40
2019-01-03T22:00:47.058Z,4.40
2019-01-03T22:03:14.496Z,5.53
2019-01-03T22:05:41.878Z,4.60
2019-01-03T22:08:09.307Z,4.03
2019-01-03T22:10:36.725Z,6.07
2019-01-03T22:13:04.143Z,5.20
2019-01-03T22:15:31.551Z,4.67
2019-01-03T22:17:58.977Z,6.10
2019-01-03T22:20:26.376Z,4.90
2019-01-03T22:22:53.796Z,5.73
2019-01-03T22:25:21.190Z,4.27
2019-01-03T22:27:48.612Z,4.00
2019-01-03T22:30:16.002Z,3.97
2019-01-03T22:32:43.480Z,4.00
2019-01-03T22:35:10.880Z,5.40
2019-01-03T22:37:38.379Z,4.80
2019-01-03T22:40:06.552Z,3.80
2019-01-03T22:42:33.975Z,4.87
2019-01-03T22:45:01.366Z,4.57
2019-01-03T22:47:28.794Z,3.70
2019-01-03T22:49:56.182Z,4.63
2019-01-03T22:52:23.594Z,3.77
2019-01-03T22:54:50.991Z,3.80
2019-01-03T22:57:18.411Z,4.00
2019-01-03T22:59:45.804Z,3.60
2019-01-03T23:02:13.302Z,3.57
2019-01-03T23:04:40.739Z,3.77
2019-01-03T23:07:08.780Z,4.17
2019-01-03T23:09:36.725Z,3.60
2019-01-03T23:12:04.393Z,3.90
2019-01-03T23:14:32.552Z,4.80
2019-01-03T23:17:01.087Z,4.70
2019-01-03T23:19:28.518Z,4.33
2019-01-03T23:21:56.050Z,3.77
2019-01-03T23:24:23.434Z,5.00
2019-01-03T23:26:50.820Z,3.70
2019-01-03T23:29:18.307Z,3.53
2019-01-03T23:31:45.815Z,4.00
2019-01-03T23:34:13.539Z,3.70
2019-01-03T23:36:41.007Z,3.90
2019-01-03T23:39:08.500Z,4.03
2019-01-03T23:41:35.935Z,4.20
2019-01-03T23:44:03.343Z,3.83
2019-01-03T23:46:30.808Z,3.90
2019-01-03T23:48:58.223Z,3.83
2019-01-03T23:51:25.686Z,4.07
2019-01-03T23:53:53.109Z,5.23
2019-01-03T23:56:20.496Z,3.63
2019-01-03T23:58:47.919Z,3.80
